logo
Search for airport 
image banner adimage banner adimage banner ad
image banner ad

ED1784 - Meissen-Radebeul Elblandkliniken

Located in Meissen, Germany

ICAO - , IATA -

Data provided by Airmate  

General information

Coordinates: N51°10'30" E13°30'21"
Elevation is 398 feet MSL.
 
View others Airports in Saxony

Operational data

Special qualification required
Current time UTC:
Current local time:
Weather at : EDDC - Dresden ( 19 km )
METAR: EDDC 171250Z AUTO 31005KT 260V350 CAVOK 25/12 Q1020 NOSIG
TAF: TAF EDDC 171100Z 1712/1812 27011KT 9999 FEW045 BECMG 1717/1720 31004KT
View NOTAMs / SUP AIP / TFR affecting this airport [VIEW]
Communications frequencies: [VIEW]

Runways:

Airport contact information

Address: Meissen Germany

Satellite view of ED1784